sensor_id;sensor_type;location;lat;lon;timestamp;pressure;altitude;pressure_sealevel;temperature;humidity
26443;BME280;5563;52.296;6.806;2023-03-22T00:02:03;100854.31;;;9.70;82.48
26443;BME280;5563;52.296;6.806;2023-03-22T00:04:36;100858.91;;;9.68;82.49
26443;BME280;5563;52.296;6.806;2023-03-22T00:07:10;100847.16;;;9.59;82.90
26443;BME280;5563;52.296;6.806;2023-03-22T00:09:43;100852.84;;;9.66;82.71
26443;BME280;5563;52.296;6.806;2023-03-22T00:12:16;100843.25;;;9.63;82.87
26443;BME280;5563;52.296;6.806;2023-03-22T00:14:50;100853.69;;;9.66;82.96
26443;BME280;5563;52.296;6.806;2023-03-22T00:17:23;100845.09;;;9.63;82.56
26443;BME280;5563;52.296;6.806;2023-03-22T00:19:51;100856.44;;;9.65;82.79
26443;BME280;5563;52.296;6.806;2023-03-22T00:22:26;100845.19;;;9.61;82.66
26443;BME280;5563;52.296;6.806;2023-03-22T00:24:53;100851.38;;;9.62;82.76
26443;BME280;5563;52.296;6.806;2023-03-22T00:27:26;100848.09;;;9.58;82.89
26443;BME280;5563;52.296;6.806;2023-03-22T00:29:53;100842.03;;;9.56;82.89
26443;BME280;5563;52.296;6.806;2023-03-22T00:32:26;100844.22;;;9.51;82.76
26443;BME280;5563;52.296;6.806;2023-03-22T00:34:53;100833.19;;;9.45;82.91
26443;BME280;5563;52.296;6.806;2023-03-22T00:37:27;100845.41;;;9.47;83.12
26443;BME280;5563;52.296;6.806;2023-03-22T00:40:10;100853.50;;;9.46;83.33
26443;BME280;5563;52.296;6.806;2023-03-22T00:42:43;100844.03;;;9.42;83.33
26443;BME280;5563;52.296;6.806;2023-03-22T00:45:16;100833.03;;;9.35;82.98
26443;BME280;5563;52.296;6.806;2023-03-22T00:47:49;100845.28;;;9.38;83.27
26443;BME280;5563;52.296;6.806;2023-03-22T00:50:16;100841.88;;;9.36;83.28
26443;BME280;5563;52.296;6.806;2023-03-22T00:52:49;100839.34;;;9.34;83.28
26443;BME280;5563;52.296;6.806;2023-03-22T00:55:16;100831.56;;;9.31;83.19
26443;BME280;5563;52.296;6.806;2023-03-22T00:57:49;100844.66;;;9.34;83.04
26443;BME280;5563;52.296;6.806;2023-03-22T01:00:22;100834.13;;;9.33;82.98
26443;BME280;5563;52.296;6.806;2023-03-22T01:02:49;100832.16;;;9.35;83.05
26443;BME280;5563;52.296;6.806;2023-03-22T01:05:25;100834.13;;;9.33;82.64
26443;BME280;5563;52.296;6.806;2023-03-22T01:07:53;100819.34;;;9.29;82.87
26443;BME280;5563;52.296;6.806;2023-03-22T01:10:34;100824.31;;;9.33;82.44
26443;BME280;5563;52.296;6.806;2023-03-22T01:13:09;100829.63;;;9.33;82.65
26443;BME280;5563;52.296;6.806;2023-03-22T01:15:43;100809.16;;;9.23;82.68
26443;BME280;5563;52.296;6.806;2023-03-22T01:18:17;100815.59;;;9.31;82.45
26443;BME280;5563;52.296;6.806;2023-03-22T01:20:50;100806.66;;;9.32;82.38
26443;BME280;5563;52.296;6.806;2023-03-22T01:23:17;100807.41;;;9.34;82.15
26443;BME280;5563;52.296;6.806;2023-03-22T01:25:50;100813.47;;;9.36;82.01
26443;BME280;5563;52.296;6.806;2023-03-22T01:28:17;100804.00;;;9.32;82.41
26443;BME280;5563;52.296;6.806;2023-03-22T01:30:44;100805.56;;;9.35;82.17
26443;BME280;5563;52.296;6.806;2023-03-22T01:33:17;100793.00;;;9.37;81.79
26443;BME280;5563;52.296;6.806;2023-03-22T01:35:43;100799.91;;;9.39;81.78
26443;BME280;5563;52.296;6.806;2023-03-22T01:38:16;100789.38;;;9.38;81.67
26443;BME280;5563;52.296;6.806;2023-03-22T01:40:43;100803.31;;;9.41;81.76
26443;BME280;5563;52.296;6.806;2023-03-22T01:43:17;100795.06;;;9.44;81.80
26443;BME280;5563;52.296;6.806;2023-03-22T01:45:51;100789.75;;;9.44;81.70
26443;BME280;5563;52.296;6.806;2023-03-22T01:48:30;100764.47;;;9.39;81.69
26443;BME280;5563;52.296;6.806;2023-03-22T01:51:11;100774.16;;;9.40;81.44
26443;BME280;5563;52.296;6.806;2023-03-22T01:53:48;100777.31;;;9.45;81.72
26443;BME280;5563;52.296;6.806;2023-03-22T01:56:24;100772.00;;;9.45;81.45
26443;BME280;5563;52.296;6.806;2023-03-22T01:58:59;100768.47;;;9.44;81.67
26443;BME280;5563;52.296;6.806;2023-03-22T02:01:26;100759.53;;;9.45;81.15
26443;BME280;5563;52.296;6.806;2023-03-22T02:04:10;100753.13;;;9.48;81.30
26443;BME280;5563;52.296;6.806;2023-03-22T02:06:46;100750.44;;;9.48;81.14
26443;BME280;5563;52.296;6.806;2023-03-22T02:09:19;100749.59;;;9.47;81.31
26443;BME280;5563;52.296;6.806;2023-03-22T02:17:51;100701.94;;;9.33;80.59
26443;BME280;5563;52.296;6.806;2023-03-22T02:21:04;100715.25;;;9.44;80.58
26443;BME280;5563;52.296;6.806;2023-03-22T02:24:01;100728.09;;;9.50;80.51
26443;BME280;5563;52.296;6.806;2023-03-22T02:33:01;100717.19;;;9.42;80.68
26443;BME280;5563;52.296;6.806;2023-03-22T02:35:49;100714.53;;;9.42;80.40
26443;BME280;5563;52.296;6.806;2023-03-22T02:41:24;100715.09;;;9.35;80.53
26443;BME280;5563;52.296;6.806;2023-03-22T02:44:08;100707.25;;;9.33;80.88
26443;BME280;5563;52.296;6.806;2023-03-22T02:47:03;100703.84;;;9.31;81.05
26443;BME280;5563;52.296;6.806;2023-03-22T02:49:44;100716.34;;;9.31;80.67
26443;BME280;5563;52.296;6.806;2023-03-22T02:52:31;100704.84;;;9.30;80.93
26443;BME280;5563;52.296;6.806;2023-03-22T02:55:20;100697.47;;;9.34;81.06
26443;BME280;5563;52.296;6.806;2023-03-22T02:58:03;100676.56;;;9.29;80.45
26443;BME280;5563;52.296;6.806;2023-03-22T03:00:32;100694.69;;;9.35;80.65
26443;BME280;5563;52.296;6.806;2023-03-22T03:03:11;100678.72;;;9.35;80.80
26443;BME280;5563;52.296;6.806;2023-03-22T03:05:52;100668.31;;;9.32;80.77
26443;BME280;5563;52.296;6.806;2023-03-22T03:08:26;100677.25;;;9.42;80.86
26443;BME280;5563;52.296;6.806;2023-03-22T03:11:08;100680.41;;;9.47;80.95
26443;BME280;5563;52.296;6.806;2023-03-22T03:13:35;100668.06;;;9.46;80.74
26443;BME280;5563;52.296;6.806;2023-03-22T03:16:10;100667.09;;;9.47;80.96
26443;BME280;5563;52.296;6.806;2023-03-22T03:18:46;100666.41;;;9.45;81.30
26443;BME280;5563;52.296;6.806;2023-03-22T03:21:49;100652.72;;;9.39;81.34
26443;BME280;5563;52.296;6.806;2023-03-22T03:24:26;100649.09;;;9.40;81.66
26443;BME280;5563;52.296;6.806;2023-03-22T03:27:07;100651.63;;;9.41;81.67
26443;BME280;5563;52.296;6.806;2023-03-22T03:29:59;100652.38;;;9.43;81.69
26443;BME280;5563;52.296;6.806;2023-03-22T03:35:12;100642.66;;;9.42;82.12
26443;BME280;5563;52.296;6.806;2023-03-22T03:38:07;100624.44;;;9.38;82.14
26443;BME280;5563;52.296;6.806;2023-03-22T03:40:44;100620.31;;;9.34;82.21
26443;BME280;5563;52.296;6.806;2023-03-22T03:43:20;100636.28;;;9.45;82.49
26443;BME280;5563;52.296;6.806;2023-03-22T03:45:48;100632.28;;;9.50;82.35
26443;BME280;5563;52.296;6.806;2023-03-22T03:48:19;100626.09;;;9.50;82.80
26443;BME280;5563;52.296;6.806;2023-03-22T03:50:55;100646.78;;;9.57;82.67
26443;BME280;5563;52.296;6.806;2023-03-22T03:53:22;100647.63;;;9.58;82.73
26443;BME280;5563;52.296;6.806;2023-03-22T03:55:55;100637.69;;;9.60;82.90
26443;BME280;5563;52.296;6.806;2023-03-22T03:58:28;100641.22;;;9.60;82.74
26443;BME280;5563;52.296;6.806;2023-03-22T04:01:02;100635.03;;;9.60;82.94
26443;BME280;5563;52.296;6.806;2023-03-22T04:03:30;100635.03;;;9.60;83.04
26443;BME280;5563;52.296;6.806;2023-03-22T04:06:03;100623.91;;;9.55;83.40
26443;BME280;5563;52.296;6.806;2023-03-22T04:08:37;100634.91;;;9.61;83.35
26443;BME280;5563;52.296;6.806;2023-03-22T04:11:10;100626.81;;;9.63;83.14
26443;BME280;5563;52.296;6.806;2023-03-22T04:13:43;100628.25;;;9.67;83.48
26443;BME280;5563;52.296;6.806;2023-03-22T04:16:16;100619.44;;;9.66;82.96
26443;BME280;5563;52.296;6.806;2023-03-22T04:18:43;100628.25;;;9.67;83.22
26443;BME280;5563;52.296;6.806;2023-03-22T04:21:10;100621.72;;;9.71;82.73
26443;BME280;5563;52.296;6.806;2023-03-22T04:23:43;100622.78;;;9.68;82.89
26443;BME280;5563;52.296;6.806;2023-03-22T04:26:12;100624.38;;;9.71;83.17
26443;BME280;5563;52.296;6.806;2023-03-22T04:28:45;100621.84;;;9.69;83.23
26443;BME280;5563;52.296;6.806;2023-03-22T04:31:12;100624.97;;;9.74;83.43
26443;BME280;5563;52.296;6.806;2023-03-22T04:33:45;100611.66;;;9.74;83.32
26443;BME280;5563;52.296;6.806;2023-03-22T04:36:13;100614.06;;;9.77;83.26
26443;BME280;5563;52.296;6.806;2023-03-22T04:38:50;100599.22;;;9.75;83.02
26443;BME280;5563;52.296;6.806;2023-03-22T04:41:17;100604.53;;;9.75;83.01
26443;BME280;5563;52.296;6.806;2023-03-22T04:43:50;100608.66;;;9.79;82.78
26443;BME280;5563;52.296;6.806;2023-03-22T04:46:17;100615.78;;;9.78;82.88
26443;BME280;5563;52.296;6.806;2023-03-22T04:48:52;100614.66;;;9.81;82.84
26443;BME280;5563;52.296;6.806;2023-03-22T04:51:19;100617.31;;;9.81;82.85
26443;BME280;5563;52.296;6.806;2023-03-22T04:53:53;100613.97;;;9.79;82.79
26443;BME280;5563;52.296;6.806;2023-03-22T04:56:20;100599.94;;;9.77;82.69
26443;BME280;5563;52.296;6.806;2023-03-22T04:58:53;100603.19;;;9.80;82.67
26443;BME280;5563;52.296;6.806;2023-03-22T05:01:20;100606.59;;;9.82;82.77
26443;BME280;5563;52.296;6.806;2023-03-22T05:03:47;100604.75;;;9.83;82.66
26443;BME280;5563;52.296;6.806;2023-03-22T05:06:21;100593.38;;;9.81;82.42
26443;BME280;5563;52.296;6.806;2023-03-22T05:08:47;100601.25;;;9.82;82.34
26443;BME280;5563;52.296;6.806;2023-03-22T05:11:20;100593.38;;;9.81;82.56
26443;BME280;5563;52.296;6.806;2023-03-22T05:13:49;100588.56;;;9.75;82.29
26443;BME280;5563;52.296;6.806;2023-03-22T05:16:23;100586.97;;;9.72;82.32
26443;BME280;5563;52.296;6.806;2023-03-22T05:18:50;100597.75;;;9.71;82.58
26443;BME280;5563;52.296;6.806;2023-03-22T05:21:24;100600.81;;;9.66;82.70
26443;BME280;5563;52.296;6.806;2023-03-22T05:23:59;100601.88;;;9.64;82.90
26443;BME280;5563;52.296;6.806;2023-03-22T05:26:32;100592.69;;;9.57;82.80
26443;BME280;5563;52.296;6.806;2023-03-22T05:29:03;100578.19;;;9.50;82.74
26443;BME280;5563;52.296;6.806;2023-03-22T05:31:36;100601.69;;;9.56;83.01
26443;BME280;5563;52.296;6.806;2023-03-22T05:34:09;100599.00;;;9.56;82.82
26443;BME280;5563;52.296;6.806;2023-03-22T05:36:36;100594.03;;;9.51;82.56
26443;BME280;5563;52.296;6.806;2023-03-22T05:39:09;100591.97;;;9.55;82.61
26443;BME280;5563;52.296;6.806;2023-03-22T05:41:36;100574.56;;;9.51;82.57
26443;BME280;5563;52.296;6.806;2023-03-22T05:44:09;100577.34;;;9.49;82.61
26443;BME280;5563;52.296;6.806;2023-03-22T05:46:36;100575.06;;;9.45;82.67
26443;BME280;5563;52.296;6.806;2023-03-22T05:49:09;100583.53;;;9.50;82.64
26443;BME280;5563;52.296;6.806;2023-03-22T05:51:37;100590.78;;;9.48;82.51
26443;BME280;5563;52.296;6.806;2023-03-22T05:54:13;100563.69;;;9.43;82.34
26443;BME280;5563;52.296;6.806;2023-03-22T05:56:40;100576.28;;;9.52;82.23
26443;BME280;5563;52.296;6.806;2023-03-22T05:59:13;100568.03;;;9.55;82.22
26443;BME280;5563;52.296;6.806;2023-03-22T06:01:40;100565.38;;;9.55;82.26
26443;BME280;5563;52.296;6.806;2023-03-22T06:04:13;100567.78;;;9.58;82.12
26443;BME280;5563;52.296;6.806;2023-03-22T06:06:40;100574.66;;;9.60;81.83
26443;BME280;5563;52.296;6.806;2023-03-22T06:09:20;100571.28;;;9.58;81.96
26443;BME280;5563;52.296;6.806;2023-03-22T06:12:00;100573.94;;;9.58;81.79
26443;BME280;5563;52.296;6.806;2023-03-22T06:14:33;100575.06;;;9.56;82.01
26443;BME280;5563;52.296;6.806;2023-03-22T06:17:00;100568.03;;;9.55;81.89
26443;BME280;5563;52.296;6.806;2023-03-22T06:19:33;100569.00;;;9.54;82.09
26443;BME280;5563;52.296;6.806;2023-03-22T06:22:07;100561.38;;;9.49;82.01
26443;BME280;5563;52.296;6.806;2023-03-22T06:24:33;100560.31;;;9.52;81.57
26443;BME280;5563;52.296;6.806;2023-03-22T06:27:07;100570.69;;;9.55;81.62
26443;BME280;5563;52.296;6.806;2023-03-22T06:29:40;100564.50;;;9.54;81.81
26443;BME280;5563;52.296;6.806;2023-03-22T06:32:07;100573.59;;;9.52;81.85
26443;BME280;5563;52.296;6.806;2023-03-22T06:34:34;100571.91;;;9.51;81.70
26443;BME280;5563;52.296;6.806;2023-03-22T06:37:06;100568.16;;;9.53;81.90
26443;BME280;5563;52.296;6.806;2023-03-22T06:39:39;100571.66;;;9.54;81.59
26443;BME280;5563;52.296;6.806;2023-03-22T06:42:12;100565.75;;;9.50;81.59
26443;BME280;5563;52.296;6.806;2023-03-22T06:44:39;100560.19;;;9.42;81.47
26443;BME280;5563;52.296;6.806;2023-03-22T06:47:15;100567.94;;;9.45;81.86
26443;BME280;5563;52.296;6.806;2023-03-22T06:49:42;100565.38;;;9.44;81.66
26443;BME280;5563;52.296;6.806;2023-03-22T06:52:15;100554.13;;;9.40;81.61
26443;BME280;5563;52.296;6.806;2023-03-22T06:54:42;100566.22;;;9.44;81.46
26443;BME280;5563;52.296;6.806;2023-03-22T06:57:31;100545.06;;;9.43;81.57
26443;BME280;5563;52.296;6.806;2023-03-22T07:00:12;100558.97;;;9.46;81.47
26443;BME280;5563;52.296;6.806;2023-03-22T07:02:45;100563.22;;;9.49;81.24
26443;BME280;5563;52.296;6.806;2023-03-22T07:05:12;100574.56;;;9.51;81.13
26443;BME280;5563;52.296;6.806;2023-03-22T07:07:52;100584.47;;;9.60;81.12
26443;BME280;5563;52.296;6.806;2023-03-22T07:10:32;100573.59;;;9.63;80.90
26443;BME280;5563;52.296;6.806;2023-03-22T07:13:06;100576.47;;;9.71;80.86
26443;BME280;5563;52.296;6.806;2023-03-22T07:15:32;100565.47;;;9.75;80.12
26443;BME280;5563;52.296;6.806;2023-03-22T07:18:06;100545.72;;;9.78;80.00
26443;BME280;5563;52.296;6.806;2023-03-22T07:20:39;100553.53;;;9.91;79.82
26443;BME280;5563;52.296;6.806;2023-03-22T07:23:08;100544.56;;;9.92;79.62
26443;BME280;5563;52.296;6.806;2023-03-22T07:25:43;100550.31;;;10.08;79.04
26443;BME280;5563;52.296;6.806;2023-03-22T07:28:10;100545.22;;;10.16;78.30
26443;BME280;5563;52.296;6.806;2023-03-22T07:30:43;100537.28;;;10.25;78.24
26443;BME280;5563;52.296;6.806;2023-03-22T07:33:10;100553.44;;;10.44;77.58
26443;BME280;5563;52.296;6.806;2023-03-22T07:35:38;100548.56;;;10.49;77.25
26443;BME280;5563;52.296;6.806;2023-03-22T07:38:11;100539.06;;;10.56;76.97
26443;BME280;5563;52.296;6.806;2023-03-22T07:40:44;100544.56;;;10.64;76.53
26443;BME280;5563;52.296;6.806;2023-03-22T07:43:11;100547.72;;;10.69;76.70
26443;BME280;5563;52.296;6.806;2023-03-22T07:45:44;100541.78;;;10.66;76.27
26443;BME280;5563;52.296;6.806;2023-03-22T07:48:11;100531.72;;;10.69;76.31
26443;BME280;5563;52.296;6.806;2023-03-22T07:50:47;100545.94;;;10.79;75.65
26443;BME280;5563;52.296;6.806;2023-03-22T07:53:14;100529.34;;;10.76;75.53
26443;BME280;5563;52.296;6.806;2023-03-22T07:55:47;100554.22;;;10.86;75.37
26443;BME280;5563;52.296;6.806;2023-03-22T07:58:28;100527.97;;;10.81;75.27
26443;BME280;5563;52.296;6.806;2023-03-22T08:00:54;100545.28;;;10.87;74.91
26443;BME280;5563;52.296;6.806;2023-03-22T08:03:28;100540.53;;;10.91;74.88
26443;BME280;5563;52.296;6.806;2023-03-22T08:05:55;100545.72;;;10.92;74.83
26443;BME280;5563;52.296;6.806;2023-03-22T08:08:37;100555.16;;;10.96;74.74
26443;BME280;5563;52.296;6.806;2023-03-22T08:11:18;100549.75;;;10.86;74.79
26443;BME280;5563;52.296;6.806;2023-03-22T08:13:50;100547.38;;;10.83;74.71
26443;BME280;5563;52.296;6.806;2023-03-22T08:16:17;100532.97;;;10.75;74.98
26443;BME280;5563;52.296;6.806;2023-03-22T08:18:51;100546.31;;;10.75;75.16
26443;BME280;5563;52.296;6.806;2023-03-22T08:21:17;100545.88;;;10.70;74.96
26443;BME280;5563;52.296;6.806;2023-03-22T08:23:51;100555.94;;;10.66;75.44
26443;BME280;5563;52.296;6.806;2023-03-22T08:26:17;100549.91;;;10.64;75.49
26443;BME280;5563;52.296;6.806;2023-03-22T08:28:51;100552.69;;;10.63;75.71
26443;BME280;5563;52.296;6.806;2023-03-22T08:31:24;100547.13;;;10.66;75.49
26443;BME280;5563;52.296;6.806;2023-03-22T08:33:58;100547.13;;;10.66;75.29
26443;BME280;5563;52.296;6.806;2023-03-22T08:36:24;100548.16;;;10.74;75.32
26443;BME280;5563;52.296;6.806;2023-03-22T08:38:57;100552.50;;;10.75;75.55
26443;BME280;5563;52.296;6.806;2023-03-22T08:41:24;100550.84;;;10.84;74.88
26443;BME280;5563;52.296;6.806;2023-03-22T08:43:58;100552.88;;;10.92;74.68
26443;BME280;5563;52.296;6.806;2023-03-22T08:46:31;100544.88;;;10.92;74.79
26443;BME280;5563;52.296;6.806;2023-03-22T08:48:57;100547.84;;;10.98;73.93
26443;BME280;5563;52.296;6.806;2023-03-22T08:51:33;100550.13;;;11.03;74.43
26443;BME280;5563;52.296;6.806;2023-03-22T08:54:00;100565.28;;;11.02;73.84
26443;BME280;5563;52.296;6.806;2023-03-22T08:56:33;100552.06;;;11.01;74.37
26443;BME280;5563;52.296;6.806;2023-03-22T08:59:04;100559.34;;;10.99;73.98
26443;BME280;5563;52.296;6.806;2023-03-22T09:01:39;100563.16;;;10.96;73.87
26443;BME280;5563;52.296;6.806;2023-03-22T09:04:05;100557.94;;;10.95;74.23
26443;BME280;5563;52.296;6.806;2023-03-22T09:06:39;100562.16;;;10.97;74.31
26443;BME280;5563;52.296;6.806;2023-03-22T09:09:14;100566.63;;;10.97;74.26
26443;BME280;5563;52.296;6.806;2023-03-22T09:11:48;100560.34;;;10.98;74.12
26443;BME280;5563;52.296;6.806;2023-03-22T09:14:14;100553.00;;;10.90;74.41
26443;BME280;5563;52.296;6.806;2023-03-22T09:16:47;100553.44;;;10.95;73.92
26443;BME280;5563;52.296;6.806;2023-03-22T09:19:14;100537.88;;;11.00;73.72
26443;BME280;5563;52.296;6.806;2023-03-22T09:21:47;100527.13;;;11.11;73.71
26443;BME280;5563;52.296;6.806;2023-03-22T09:24:15;100537.72;;;11.32;73.08
26443;BME280;5563;52.296;6.806;2023-03-22T09:26:49;100531.41;;;11.33;73.05
26443;BME280;5563;52.296;6.806;2023-03-22T09:29:22;100534.69;;;11.46;72.66
26443;BME280;5563;52.296;6.806;2023-03-22T09:31:48;100521.75;;;11.51;72.43
26443;BME280;5563;52.296;6.806;2023-03-22T09:34:22;100531.88;;;11.57;72.45
26443;BME280;5563;52.296;6.806;2023-03-22T09:36:48;100515.16;;;11.55;72.28
26443;BME280;5563;52.296;6.806;2023-03-22T09:39:23;100513.91;;;11.49;72.01
26443;BME280;5563;52.296;6.806;2023-03-22T09:41:54;100529.63;;;11.52;71.88
26443;BME280;5563;52.296;6.806;2023-03-22T09:44:32;100506.59;;;11.61;71.41
26443;BME280;5563;52.296;6.806;2023-03-22T09:47:00;100515.22;;;11.74;71.32
26443;BME280;5563;52.296;6.806;2023-03-22T09:49:39;100521.13;;;11.87;71.09
26443;BME280;5563;52.296;6.806;2023-03-22T09:52:19;100527.75;;;12.02;70.05
26443;BME280;5563;52.296;6.806;2023-03-22T09:54:47;100515.06;;;12.14;69.97
26443;BME280;5563;52.296;6.806;2023-03-22T09:57:36;100530.41;;;12.21;70.13
26443;BME280;5563;52.296;6.806;2023-03-22T10:00:37;100509.84;;;12.41;69.61
26443;BME280;5563;52.296;6.806;2023-03-22T10:11:58;100525.34;;;12.18;69.00
26443;BME280;5563;52.296;6.806;2023-03-22T10:14:38;100526.19;;;12.19;69.59
26443;BME280;5563;52.296;6.806;2023-03-22T10:17:22;100514.81;;;12.17;69.11
26443;BME280;5563;52.296;6.806;2023-03-22T10:19:58;100510.28;;;12.17;69.21
26443;BME280;5563;52.296;6.806;2023-03-22T10:22:39;100521.97;;;12.07;68.59
26443;BME280;5563;52.296;6.806;2023-03-22T10:25:21;100527.59;;;12.04;69.19
26443;BME280;5563;52.296;6.806;2023-03-22T10:27:56;100510.88;;;12.02;69.54
26443;BME280;5563;52.296;6.806;2023-03-22T10:30:34;100512.28;;;11.96;69.20
26443;BME280;5563;52.296;6.806;2023-03-22T10:33:21;100515.53;;;11.90;69.88
26443;BME280;5563;52.296;6.806;2023-03-22T10:35:58;100493.28;;;11.80;69.33
26443;BME280;5563;52.296;6.806;2023-03-22T10:38:36;100512.41;;;11.75;69.20
26443;BME280;5563;52.296;6.806;2023-03-22T10:41:16;100518.59;;;11.76;69.55
26443;BME280;5563;52.296;6.806;2023-03-22T10:43:47;100511.84;;;11.72;69.70
26443;BME280;5563;52.296;6.806;2023-03-22T10:46:24;100517.72;;;11.66;70.25
26443;BME280;5563;52.296;6.806;2023-03-22T10:48:59;100517.44;;;11.69;69.93
26443;BME280;5563;52.296;6.806;2023-03-22T10:51:31;100520.41;;;11.66;69.65
26443;BME280;5563;52.296;6.806;2023-03-22T10:54:11;100514.31;;;11.64;69.62
26443;BME280;5563;52.296;6.806;2023-03-22T10:56:38;100524.19;;;11.63;69.79
26443;BME280;5563;52.296;6.806;2023-03-22T10:59:40;100526.75;;;11.65;69.86
26443;BME280;5563;52.296;6.806;2023-03-22T11:02:28;100535.56;;;11.65;69.96
26443;BME280;5563;52.296;6.806;2023-03-22T11:05:04;100541.16;;;11.62;71.33
26443;BME280;5563;52.296;6.806;2023-03-22T11:07:33;100528.63;;;11.53;71.47
26443;BME280;5563;52.296;6.806;2023-03-22T11:10:23;100531.56;;;11.41;72.04
26443;BME280;5563;52.296;6.806;2023-03-22T11:15:49;100531.78;;;11.19;74.51
26443;BME280;5563;52.296;6.806;2023-03-22T11:18:17;100524.97;;;11.05;75.22
26443;BME280;5563;52.296;6.806;2023-03-22T11:21:02;100544.50;;;11.06;75.21
26443;BME280;5563;52.296;6.806;2023-03-22T11:23:32;100531.72;;;11.00;75.42
26443;BME280;5563;52.296;6.806;2023-03-22T11:26:09;100534.91;;;10.94;76.52
26443;BME280;5563;52.296;6.806;2023-03-22T11:28:49;100532.66;;;10.89;76.30
26443;BME280;5563;52.296;6.806;2023-03-22T11:31:23;100542.19;;;10.92;76.48
26443;BME280;5563;52.296;6.806;2023-03-22T11:33:56;100538.94;;;10.88;77.44
26443;BME280;5563;52.296;6.806;2023-03-22T11:36:30;100535.31;;;10.89;77.62
26443;BME280;5563;52.296;6.806;2023-03-22T11:38:58;100533.47;;;10.89;77.55
26443;BME280;5563;52.296;6.806;2023-03-22T11:41:36;100542.34;;;10.90;77.71
26443;BME280;5563;52.296;6.806;2023-03-22T11:44:12;100531.66;;;10.90;77.16
26443;BME280;5563;52.296;6.806;2023-03-22T11:46:48;100525.09;;;10.94;77.29
26443;BME280;5563;52.296;6.806;2023-03-22T11:49:24;100536.34;;;10.98;77.05
26443;BME280;5563;52.296;6.806;2023-03-22T11:52:07;100529.06;;;11.00;77.21
26443;BME280;5563;52.296;6.806;2023-03-22T11:54:44;100523.31;;;11.04;77.03
26443;BME280;5563;52.296;6.806;2023-03-22T11:57:23;100518.97;;;11.03;77.00
26443;BME280;5563;52.296;6.806;2023-03-22T12:00:12;100520.69;;;11.14;76.82
26443;BME280;5563;52.296;6.806;2023-03-22T12:03:04;100529.50;;;11.14;76.01
26443;BME280;5563;52.296;6.806;2023-03-22T12:05:41;100529.41;;;11.16;77.20
26443;BME280;5563;52.296;6.806;2023-03-22T12:08:45;100525.44;;;11.20;76.68
26443;BME280;5563;52.296;6.806;2023-03-22T12:11:46;100531.50;;;11.22;76.39
26443;BME280;5563;52.296;6.806;2023-03-22T12:14:32;100526.16;;;11.22;76.19
26443;BME280;5563;52.296;6.806;2023-03-22T12:19:56;100519.16;;;11.21;74.67
26443;BME280;5563;52.296;6.806;2023-03-22T12:22:35;100533.22;;;11.23;75.80
26443;BME280;5563;52.296;6.806;2023-03-22T12:25:16;100523.06;;;11.17;75.00
26443;BME280;5563;52.296;6.806;2023-03-22T12:27:56;100518.44;;;11.19;75.29
26443;BME280;5563;52.296;6.806;2023-03-22T12:30:30;100511.16;;;11.21;74.99
26443;BME280;5563;52.296;6.806;2023-03-22T12:33:20;100521.97;;;11.19;74.44
26443;BME280;5563;52.296;6.806;2023-03-22T12:35:50;100513.78;;;11.11;74.81
26443;BME280;5563;52.296;6.806;2023-03-22T12:41:14;100502.53;;;11.08;75.13
26443;BME280;5563;52.296;6.806;2023-03-22T12:43:54;100505.72;;;11.02;75.18
26443;BME280;5563;52.296;6.806;2023-03-22T12:46:22;100521.50;;;11.05;75.35
26443;BME280;5563;52.296;6.806;2023-03-22T12:49:05;100532.28;;;11.03;75.76
26443;BME280;5563;52.296;6.806;2023-03-22T12:51:37;100515.38;;;10.93;75.31
26443;BME280;5563;52.296;6.806;2023-03-22T12:54:10;100528.47;;;10.96;75.53
26443;BME280;5563;52.296;6.806;2023-03-22T12:56:42;100515.66;;;10.90;75.73
26443;BME280;5563;52.296;6.806;2023-03-22T12:59:20;100533.09;;;10.94;76.17
26443;BME280;5563;52.296;6.806;2023-03-22T13:02:14;100525.09;;;10.94;75.86
26443;BME280;5563;52.296;6.806;2023-03-22T13:04:52;100518.19;;;10.92;75.72
26443;BME280;5563;52.296;6.806;2023-03-22T13:07:49;100534.91;;;10.94;75.55
26443;BME280;5563;52.296;6.806;2023-03-22T13:21:23;100521.16;;;10.98;75.21
26443;BME280;5563;52.296;6.806;2023-03-22T13:26:53;100534.63;;;10.97;75.61
26443;BME280;5563;52.296;6.806;2023-03-22T13:29:35;100532.81;;;10.97;75.71
26443;BME280;5563;52.296;6.806;2023-03-22T13:32:28;100531.97;;;10.97;75.40
26443;BME280;5563;52.296;6.806;2023-03-22T13:34:56;100529.44;;;10.95;75.84
26443;BME280;5563;52.296;6.806;2023-03-22T13:37:35;100534.91;;;10.94;76.17
26443;BME280;5563;52.296;6.806;2023-03-22T13:40:27;100528.59;;;10.95;75.67
26443;BME280;5563;52.296;6.806;2023-03-22T13:56:48;100529.56;;;10.94;76.56
26443;BME280;5563;52.296;6.806;2023-03-22T13:59:28;100534.34;;;10.90;76.78
26443;BME280;5563;52.296;6.806;2023-03-22T14:02:18;100527.00;;;10.82;77.82
26443;BME280;5563;52.296;6.806;2023-03-22T14:07:51;100527.75;;;10.64;79.64
26443;BME280;5563;52.296;6.806;2023-03-22T14:10:25;100531.78;;;10.58;80.35
26443;BME280;5563;52.296;6.806;2023-03-22T14:13:04;100517.44;;;10.50;80.44
26443;BME280;5563;52.296;6.806;2023-03-22T14:15:54;100540.94;;;10.45;81.20
26443;BME280;5563;52.296;6.806;2023-03-22T14:18:30;100535.88;;;10.42;81.18
26443;BME280;5563;52.296;6.806;2023-03-22T14:21:18;100541.34;;;10.40;81.45
26443;BME280;5563;52.296;6.806;2023-03-22T14:23:54;100535.44;;;10.37;81.87
26443;BME280;5563;52.296;6.806;2023-03-22T14:26:31;100537.22;;;10.36;82.20
26443;BME280;5563;52.296;6.806;2023-03-22T14:29:09;100541.03;;;10.34;82.11
26443;BME280;5563;52.296;6.806;2023-03-22T14:31:52;100534.13;;;10.31;82.38
26443;BME280;5563;52.296;6.806;2023-03-22T14:34:28;100538.50;;;10.32;82.59
26443;BME280;5563;52.296;6.806;2023-03-22T14:36:57;100533.28;;;10.31;83.08
26443;BME280;5563;52.296;6.806;2023-03-22T14:39:33;100538.34;;;10.34;82.85
26443;BME280;5563;52.296;6.806;2023-03-22T14:42:06;100533.97;;;10.33;83.44
26443;BME280;5563;52.296;6.806;2023-03-22T14:44:45;100530.50;;;10.32;83.29
26443;BME280;5563;52.296;6.806;2023-03-22T14:47:26;100527.13;;;10.30;83.55
26443;BME280;5563;52.296;6.806;2023-03-22T14:50:06;100519.50;;;10.26;83.98
26443;BME280;5563;52.296;6.806;2023-03-22T14:52:34;100525.69;;;10.26;84.45